Etusivu
METAR-TAF:

METAR-TAF

Lentoasemat :

Ankeny Regional Airport

Ankeny, Iowa, Yhdysvallat

Leveyspiiri: 41-41-24N, Pituuspiiri: 093-33-57W, korkeus merenpinnasta: 275 m

Tämänhetkinen sää

Tämä raportti tehtiin 15 minuuttia sitten, kello 07.35 UTC
Tuuli 4 kn lännestä
Lämpötila -4°C
Kosteus 93%
Ilmanpaine 1017 hPa
Näkyvyys: 4.8 km
Pilvistä 400 ft:n korkeudessa
utua

METAR: KIKV 260735Z AUTO 26004KT 3SM BR OVC004 M04/M05 A3003 RMK AO2

Aika: 01:50 (07:50 UTC)


TAF: puuttuu

Säähavainnot ja -ennusteet yli 4000 lentoasemalta (METAR- ja TAF-raportit).

Käytössä olevat sääasemat on merkitty karttaan keltaisilla ja punaisilla pisteillä.

Aseta hiiri pisteen päälle nähdäksesi sääaseman nimen.

Klikkaa sitten nähdäksesi säähavainnot ja -ennusteet.

Kartan vaihtaminen: klikkaa mustalla rastilla varustettuja vihreitä pisteitä, niin voit zoomata sisään; viivalla varustettua vihreää pistettä, niin voit zoomata ulos tai vihreitä nuolia, niin pääset viereisille kartoille.


METAR-TAF: